sensor_id;sensor_type;location;lat;lon;timestamp;pressure;altitude;pressure_sealevel;temperature;humidity
61900;BME280;47853;55.890;37.664;2023-01-10T00:00:16;101308.00;;;-20.08;91.69
61900;BME280;47853;55.890;37.664;2023-01-10T00:02:42;101294.09;;;-19.99;92.01
61900;BME280;47853;55.890;37.664;2023-01-10T00:05:07;101289.94;;;-19.98;91.46
61900;BME280;47853;55.890;37.664;2023-01-10T00:07:33;101285.41;;;-20.23;91.90
61900;BME280;47853;55.890;37.664;2023-01-10T00:09:58;101286.91;;;-20.27;91.73
61900;BME280;47853;55.890;37.664;2023-01-10T00:12:23;101301.22;;;-20.09;92.88
61900;BME280;47853;55.890;37.664;2023-01-10T00:14:49;101286.31;;;-20.03;92.79
61900;BME280;47853;55.890;37.664;2023-01-10T00:17:14;101281.75;;;-20.10;92.52
61900;BME280;47853;55.890;37.664;2023-01-10T00:19:39;101276.53;;;-19.95;92.51
61900;BME280;47853;55.890;37.664;2023-01-10T00:22:04;101286.59;;;-19.97;92.01
61900;BME280;47853;55.890;37.664;2023-01-10T00:24:30;101301.63;;;-20.00;91.57
61900;BME280;47853;55.890;37.664;2023-01-10T00:26:55;101279.81;;;-20.16;91.43
61900;BME280;47853;55.890;37.664;2023-01-10T00:29:24;101299.72;;;-19.86;92.24
61900;BME280;47853;55.890;37.664;2023-01-10T00:32:19;101303.66;;;-20.29;92.06
61900;BME280;47853;55.890;37.664;2023-01-10T00:34:45;101251.22;;;-20.15;92.19
61900;BME280;47853;55.890;37.664;2023-01-10T00:37:10;101289.97;;;-19.96;92.45
61900;BME280;47853;55.890;37.664;2023-01-10T00:39:36;101283.22;;;-19.78;92.18
61900;BME280;47853;55.890;37.664;2023-01-10T00:42:01;101284.00;;;-20.17;92.16
61900;BME280;47853;55.890;37.664;2023-01-10T00:44:26;101256.78;;;-20.04;91.97
61900;BME280;47853;55.890;37.664;2023-01-10T00:46:52;101291.22;;;-19.69;92.43
61900;BME280;47853;55.890;37.664;2023-01-10T00:49:18;101263.38;;;-19.69;91.64
61900;BME280;47853;55.890;37.664;2023-01-10T00:51:43;101247.47;;;-20.23;91.70
61900;BME280;47853;55.890;37.664;2023-01-10T00:54:10;101240.88;;;-20.38;92.12
61900;BME280;47853;55.890;37.664;2023-01-10T00:56:36;101288.72;;;-19.87;92.07
61900;BME280;47853;55.890;37.664;2023-01-10T00:59:01;101288.22;;;-19.60;92.68
61900;BME280;47853;55.890;37.664;2023-01-10T01:01:27;101257.16;;;-19.75;91.88
61900;BME280;47853;55.890;37.664;2023-01-10T01:03:52;101263.03;;;-19.76;92.03
61900;BME280;47853;55.890;37.664;2023-01-10T01:06:18;101276.63;;;-19.55;91.83
61900;BME280;47853;55.890;37.664;2023-01-10T01:08:43;101263.78;;;-19.59;91.97
61900;BME280;47853;55.890;37.664;2023-01-10T01:11:08;101255.09;;;-19.84;91.37
61900;BME280;47853;55.890;37.664;2023-01-10T01:13:34;101263.28;;;-19.70;91.92
61900;BME280;47853;55.890;37.664;2023-01-10T01:15:59;101230.94;;;-19.77;91.20
61900;BME280;47853;55.890;37.664;2023-01-10T01:18:25;101247.78;;;-19.58;91.57
61900;BME280;47853;55.890;37.664;2023-01-10T01:20:56;101247.19;;;-19.52;91.08
61900;BME280;47853;55.890;37.664;2023-01-10T01:23:22;101251.91;;;-19.60;91.24
61900;BME280;47853;55.890;37.664;2023-01-10T01:25:51;101229.09;;;-19.62;91.40
61900;BME280;47853;55.890;37.664;2023-01-10T01:28:17;101237.06;;;-19.72;91.08
61900;BME280;47853;55.890;37.664;2023-01-10T01:30:43;101236.41;;;-19.48;91.85
61900;BME280;47853;55.890;37.664;2023-01-10T01:33:08;101237.84;;;-19.73;90.93
61900;BME280;47853;55.890;37.664;2023-01-10T01:35:34;101236.69;;;-19.62;90.93
61900;BME280;47853;55.890;37.664;2023-01-10T01:37:59;101217.94;;;-19.65;91.52
61900;BME280;47853;55.890;37.664;2023-01-10T01:40:24;101220.88;;;-19.56;91.49
61900;BME280;47853;55.890;37.664;2023-01-10T01:42:50;101212.94;;;-19.44;91.75
61900;BME280;47853;55.890;37.664;2023-01-10T01:47:45;101228.00;;;-19.47;91.14
61900;BME280;47853;55.890;37.664;2023-01-10T01:53:29;101227.94;;;-19.29;90.40
61900;BME280;47853;55.890;37.664;2023-01-10T01:56:00;101204.63;;;-19.42;90.28
61900;BME280;47853;55.890;37.664;2023-01-10T01:58:38;101242.84;;;-19.35;90.46
61900;BME280;47853;55.890;37.664;2023-01-10T02:01:05;101230.91;;;-19.18;91.02
61900;BME280;47853;55.890;37.664;2023-01-10T02:03:30;101210.63;;;-19.40;90.96
61900;BME280;47853;55.890;37.664;2023-01-10T02:05:56;101216.31;;;-19.24;91.22
61900;BME280;47853;55.890;37.664;2023-01-10T02:08:22;101238.38;;;-19.21;91.26
61900;BME280;47853;55.890;37.664;2023-01-10T02:11:02;101214.97;;;-19.16;91.21
61900;BME280;47853;55.890;37.664;2023-01-10T02:13:31;101237.97;;;-19.11;91.13
61900;BME280;47853;55.890;37.664;2023-01-10T02:15:57;101254.69;;;-18.72;90.97
61900;BME280;47853;55.890;37.664;2023-01-10T02:18:24;101223.59;;;-18.89;90.46
61900;BME280;47853;55.890;37.664;2023-01-10T02:20:56;101238.88;;;-18.88;90.60
61900;BME280;47853;55.890;37.664;2023-01-10T02:35:06;101248.38;;;-18.82;90.11
61900;BME280;47853;55.890;37.664;2023-01-10T02:40:33;101244.22;;;-18.80;89.77
61900;BME280;47853;55.890;37.664;2023-01-10T02:43:14;101235.56;;;-18.64;89.83
61900;BME280;47853;55.890;37.664;2023-01-10T02:46:05;101241.78;;;-18.57;89.68
61900;BME280;47853;55.890;37.664;2023-01-10T02:48:31;101229.66;;;-18.86;89.65
61900;BME280;47853;55.890;37.664;2023-01-10T02:51:12;101242.47;;;-18.39;90.06
61900;BME280;47853;55.890;37.664;2023-01-10T02:53:47;101222.97;;;-18.62;89.30
61900;BME280;47853;55.890;37.664;2023-01-10T02:56:33;101242.00;;;-18.51;88.70
61900;BME280;47853;55.890;37.664;2023-01-10T03:10:02;101198.09;;;-18.73;86.37
61900;BME280;47853;55.890;37.664;2023-01-10T03:15:12;101233.66;;;-18.48;86.73
61900;BME280;47853;55.890;37.664;2023-01-10T03:17:40;101224.56;;;-18.43;86.78
61900;BME280;47853;55.890;37.664;2023-01-10T03:20:08;101229.38;;;-18.28;86.71
61900;BME280;47853;55.890;37.664;2023-01-10T03:22:36;101235.53;;;-18.44;86.22
61900;BME280;47853;55.890;37.664;2023-01-10T03:25:04;101244.47;;;-18.31;86.26
61900;BME280;47853;55.890;37.664;2023-01-10T03:30:29;101255.31;;;-18.13;86.05
61900;BME280;47853;55.890;37.664;2023-01-10T03:32:57;101244.50;;;-18.30;86.07
61900;BME280;47853;55.890;37.664;2023-01-10T03:35:39;101249.09;;;-18.21;86.56
61900;BME280;47853;55.890;37.664;2023-01-10T03:38:18;101257.84;;;-18.13;86.04
61900;BME280;47853;55.890;37.664;2023-01-10T03:40:57;101250.50;;;-18.28;85.82
61900;BME280;47853;55.890;37.664;2023-01-10T03:43:36;101275.72;;;-18.32;86.40
61900;BME280;47853;55.890;37.664;2023-01-10T03:46:12;101239.31;;;-18.56;86.15
61900;BME280;47853;55.890;37.664;2023-01-10T03:48:44;101244.50;;;-18.30;86.47
61900;BME280;47853;55.890;37.664;2023-01-10T03:51:11;101244.06;;;-17.95;86.77
61900;BME280;47853;55.890;37.664;2023-01-10T03:53:37;101268.31;;;-18.05;86.61
61900;BME280;47853;55.890;37.664;2023-01-10T03:56:03;101247.00;;;-18.09;86.08
61900;BME280;47853;55.890;37.664;2023-01-10T03:58:29;101238.97;;;-18.19;86.11
61900;BME280;47853;55.890;37.664;2023-01-10T04:00:54;101248.50;;;-18.14;86.33
61900;BME280;47853;55.890;37.664;2023-01-10T04:03:20;101274.72;;;-18.13;86.38
61900;BME280;47853;55.890;37.664;2023-01-10T04:05:45;101254.97;;;-18.22;86.64
61900;BME280;47853;55.890;37.664;2023-01-10T04:08:10;101254.63;;;-18.31;86.39
61900;BME280;47853;55.890;37.664;2023-01-10T04:10:36;101215.78;;;-18.30;88.10
61900;BME280;47853;55.890;37.664;2023-01-10T04:13:01;101253.84;;;-18.29;87.74
61900;BME280;47853;55.890;37.664;2023-01-10T04:15:27;101222.31;;;-18.35;88.65
61900;BME280;47853;55.890;37.664;2023-01-10T04:17:53;101238.03;;;-18.23;88.66
61900;BME280;47853;55.890;37.664;2023-01-10T04:20:18;101242.94;;;-18.05;89.23
61900;BME280;47853;55.890;37.664;2023-01-10T04:22:44;101233.78;;;-18.00;89.55
61900;BME280;47853;55.890;37.664;2023-01-10T04:25:09;101263.06;;;-17.62;89.45
61900;BME280;47853;55.890;37.664;2023-01-10T04:27:35;101260.00;;;-17.76;89.33
61900;BME280;47853;55.890;37.664;2023-01-10T04:30:00;101298.81;;;-17.79;88.71
61900;BME280;47853;55.890;37.664;2023-01-10T04:32:25;101270.63;;;-17.40;88.36
61900;BME280;47853;55.890;37.664;2023-01-10T04:34:51;101245.16;;;-17.66;87.50
61900;BME280;47853;55.890;37.664;2023-01-10T04:37:16;101253.38;;;-17.96;86.74
61900;BME280;47853;55.890;37.664;2023-01-10T04:39:41;101262.34;;;-18.05;86.81
61900;BME280;47853;55.890;37.664;2023-01-10T04:42:07;101268.72;;;-17.92;87.03
61900;BME280;47853;55.890;37.664;2023-01-10T04:44:32;101256.13;;;-17.89;87.16
61900;BME280;47853;55.890;37.664;2023-01-10T04:46:57;101274.84;;;-17.87;86.57
61900;BME280;47853;55.890;37.664;2023-01-10T04:49:23;101304.03;;;-17.99;86.77
61900;BME280;47853;55.890;37.664;2023-01-10T04:51:48;101272.88;;;-17.95;86.86
61900;BME280;47853;55.890;37.664;2023-01-10T04:54:13;101279.06;;;-17.88;86.68
61900;BME280;47853;55.890;37.664;2023-01-10T04:56:39;101292.94;;;-17.78;87.12
61900;BME280;47853;55.890;37.664;2023-01-10T04:59:04;101290.25;;;-17.83;87.38
61900;BME280;47853;55.890;37.664;2023-01-10T05:01:29;101275.06;;;-17.81;87.50
61900;BME280;47853;55.890;37.664;2023-01-10T05:03:55;101284.69;;;-17.95;87.15
61900;BME280;47853;55.890;37.664;2023-01-10T05:06:21;101314.84;;;-17.80;87.26
61900;BME280;47853;55.890;37.664;2023-01-10T05:08:47;101309.78;;;-17.80;87.52
61900;BME280;47853;55.890;37.664;2023-01-10T05:11:13;101285.88;;;-17.87;87.27
61900;BME280;47853;55.890;37.664;2023-01-10T05:13:38;101282.41;;;-17.89;87.68
61900;BME280;47853;55.890;37.664;2023-01-10T05:16:04;101310.66;;;-17.80;87.75
61900;BME280;47853;55.890;37.664;2023-01-10T05:18:33;101283.19;;;-17.90;88.34
61900;BME280;47853;55.890;37.664;2023-01-10T05:21:00;101322.53;;;-17.79;87.71
61900;BME280;47853;55.890;37.664;2023-01-10T05:23:25;101304.59;;;-17.83;88.35
61900;BME280;47853;55.890;37.664;2023-01-10T05:25:51;101296.47;;;-17.74;88.41
61900;BME280;47853;55.890;37.664;2023-01-10T05:28:16;101303.69;;;-17.62;88.42
61900;BME280;47853;55.890;37.664;2023-01-10T05:30:41;101295.88;;;-17.90;88.18
61900;BME280;47853;55.890;37.664;2023-01-10T05:33:07;101302.47;;;-17.72;88.37
61900;BME280;47853;55.890;37.664;2023-01-10T05:35:32;101314.69;;;-17.62;88.49
61900;BME280;47853;55.890;37.664;2023-01-10T05:37:58;101283.78;;;-17.74;88.42
61900;BME280;47853;55.890;37.664;2023-01-10T05:40:23;101293.97;;;-17.50;88.46
61900;BME280;47853;55.890;37.664;2023-01-10T05:42:48;101309.75;;;-17.35;88.29
61900;BME280;47853;55.890;37.664;2023-01-10T05:45:14;101302.31;;;-17.53;87.85
61900;BME280;47853;55.890;37.664;2023-01-10T05:47:39;101328.97;;;-17.66;87.75
61900;BME280;47853;55.890;37.664;2023-01-10T05:50:11;101336.84;;;-17.58;88.07
61900;BME280;47853;55.890;37.664;2023-01-10T05:52:37;101313.53;;;-17.70;88.10
61900;BME280;47853;55.890;37.664;2023-01-10T05:55:02;101348.25;;;-17.46;88.51
61900;BME280;47853;55.890;37.664;2023-01-10T05:57:28;101349.78;;;-17.27;88.42
61900;BME280;47853;55.890;37.664;2023-01-10T05:59:53;101357.81;;;-17.16;87.89
61900;BME280;47853;55.890;37.664;2023-01-10T06:02:18;101367.75;;;-17.45;87.52
61900;BME280;47853;55.890;37.664;2023-01-10T06:04:44;101386.31;;;-17.48;88.16
61900;BME280;47853;55.890;37.664;2023-01-10T06:07:09;101346.94;;;-17.37;88.09
61900;BME280;47853;55.890;37.664;2023-01-10T06:09:34;101368.53;;;-17.48;88.04
61900;BME280;47853;55.890;37.664;2023-01-10T06:12:00;101373.38;;;-17.54;88.84
61900;BME280;47853;55.890;37.664;2023-01-10T06:14:25;101365.97;;;-17.25;88.81
61900;BME280;47853;55.890;37.664;2023-01-10T06:16:50;101378.28;;;-17.36;88.54
61900;BME280;47853;55.890;37.664;2023-01-10T06:19:16;101371.09;;;-17.46;88.33
61900;BME280;47853;55.890;37.664;2023-01-10T06:21:41;101345.97;;;-17.40;89.26
61900;BME280;47853;55.890;37.664;2023-01-10T06:24:07;101379.91;;;-17.38;89.13
61900;BME280;47853;55.890;37.664;2023-01-10T06:26:32;101371.91;;;-17.25;89.12
61900;BME280;47853;55.890;37.664;2023-01-10T06:28:57;101354.22;;;-17.23;89.68
61900;BME280;47853;55.890;37.664;2023-01-10T06:31:23;101382.59;;;-17.33;89.45
61900;BME280;47853;55.890;37.664;2023-01-10T06:33:51;101368.81;;;-17.40;89.68
61900;BME280;47853;55.890;37.664;2023-01-10T06:36:17;101357.56;;;-17.47;89.57
61900;BME280;47853;55.890;37.664;2023-01-10T06:38:42;101341.31;;;-17.28;90.08
61900;BME280;47853;55.890;37.664;2023-01-10T06:41:08;101364.50;;;-17.18;90.25
61900;BME280;47853;55.890;37.664;2023-01-10T06:43:33;101389.22;;;-17.14;90.41
61900;BME280;47853;55.890;37.664;2023-01-10T06:45:58;101391.03;;;-17.12;90.94
61900;BME280;47853;55.890;37.664;2023-01-10T06:48:24;101381.44;;;-16.95;91.57
61900;BME280;47853;55.890;37.664;2023-01-10T06:50:49;101375.19;;;-17.04;91.58
61900;BME280;47853;55.890;37.664;2023-01-10T06:53:14;101392.97;;;-17.04;92.72
61900;BME280;47853;55.890;37.664;2023-01-10T06:55:40;101390.91;;;-17.15;93.00
61900;BME280;47853;55.890;37.664;2023-01-10T06:58:05;101379.25;;;-16.84;93.87
61900;BME280;47853;55.890;37.664;2023-01-10T07:00:31;101407.88;;;-16.89;93.97
61900;BME280;47853;55.890;37.664;2023-01-10T07:03:00;101384.81;;;-16.94;93.89
61900;BME280;47853;55.890;37.664;2023-01-10T07:05:26;101378.41;;;-16.84;94.32
61900;BME280;47853;55.890;37.664;2023-01-10T07:07:51;101373.75;;;-16.98;94.47
61900;BME280;47853;55.890;37.664;2023-01-10T07:10:16;101381.97;;;-16.79;95.07
61900;BME280;47853;55.890;37.664;2023-01-10T07:12:42;101386.66;;;-16.90;95.33
61900;BME280;47853;55.890;37.664;2023-01-10T07:15:07;101383.91;;;-16.98;95.75
61900;BME280;47853;55.890;37.664;2023-01-10T07:17:33;101384.19;;;-16.88;96.08
61900;BME280;47853;55.890;37.664;2023-01-10T07:19:58;101380.34;;;-16.77;96.96
61900;BME280;47853;55.890;37.664;2023-01-10T07:22:24;101395.50;;;-16.80;97.80
61900;BME280;47853;55.890;37.664;2023-01-10T07:24:49;101348.97;;;-16.78;99.01
61900;BME280;47853;55.890;37.664;2023-01-10T07:27:14;101367.75;;;-16.48;98.98
61900;BME280;47853;55.890;37.664;2023-01-10T07:29:40;101374.06;;;-16.37;98.27
61900;BME280;47853;55.890;37.664;2023-01-10T07:32:05;101367.66;;;-16.51;97.91
61900;BME280;47853;55.890;37.664;2023-01-10T07:34:30;101376.44;;;-16.41;97.46
61900;BME280;47853;55.890;37.664;2023-01-10T07:36:56;101381.25;;;-16.25;97.55
61900;BME280;47853;55.890;37.664;2023-01-10T07:39:21;101402.09;;;-16.35;96.55
61900;BME280;47853;55.890;37.664;2023-01-10T07:41:47;101402.56;;;-16.47;96.41
61900;BME280;47853;55.890;37.664;2023-01-10T07:44:12;101370.69;;;-16.10;96.72
61900;BME280;47853;55.890;37.664;2023-01-10T07:46:38;101381.06;;;-16.04;96.10
61900;BME280;47853;55.890;37.664;2023-01-10T07:49:03;101372.53;;;-16.31;94.97
61900;BME280;47853;55.890;37.664;2023-01-10T07:51:28;101407.81;;;-15.91;94.68
61900;BME280;47853;55.890;37.664;2023-01-10T07:53:54;101399.38;;;-15.88;93.56
61900;BME280;47853;55.890;37.664;2023-01-10T07:56:19;101405.81;;;-15.99;92.53
61900;BME280;47853;55.890;37.664;2023-01-10T07:58:44;101435.59;;;-16.23;91.66
61900;BME280;47853;55.890;37.664;2023-01-10T08:01:10;101422.09;;;-16.20;91.53
61900;BME280;47853;55.890;37.664;2023-01-10T08:03:35;101430.25;;;-16.05;91.22
61900;BME280;47853;55.890;37.664;2023-01-10T08:06:03;101412.28;;;-16.09;90.82
61900;BME280;47853;55.890;37.664;2023-01-10T08:08:29;101424.91;;;-15.85;90.52
61900;BME280;47853;55.890;37.664;2023-01-10T08:10:55;101409.47;;;-15.91;89.95
61900;BME280;47853;55.890;37.664;2023-01-10T08:13:22;101404.03;;;-16.02;89.79
61900;BME280;47853;55.890;37.664;2023-01-10T08:15:47;101407.25;;;-15.79;89.28
61900;BME280;47853;55.890;37.664;2023-01-10T08:18:13;101422.50;;;-15.80;88.52
61900;BME280;47853;55.890;37.664;2023-01-10T08:20:39;101404.09;;;-15.71;88.54
61900;BME280;47853;55.890;37.664;2023-01-10T08:23:05;101384.72;;;-15.95;87.25
61900;BME280;47853;55.890;37.664;2023-01-10T08:25:30;101407.34;;;-15.77;87.39
61900;BME280;47853;55.890;37.664;2023-01-10T08:27:55;101396.16;;;-15.81;87.26
61900;BME280;47853;55.890;37.664;2023-01-10T08:30:21;101386.94;;;-15.77;87.18
61900;BME280;47853;55.890;37.664;2023-01-10T08:32:46;101371.91;;;-15.98;87.25
61900;BME280;47853;55.890;37.664;2023-01-10T08:35:13;101391.84;;;-15.83;86.72
61900;BME280;47853;55.890;37.664;2023-01-10T08:37:38;101392.47;;;-15.63;86.63
61900;BME280;47853;55.890;37.664;2023-01-10T08:40:04;101377.50;;;-15.81;86.51
61900;BME280;47853;55.890;37.664;2023-01-10T08:42:29;101402.88;;;-15.84;86.03
61900;BME280;47853;55.890;37.664;2023-01-10T08:44:55;101396.50;;;-15.70;85.96
61900;BME280;47853;55.890;37.664;2023-01-10T08:47:20;101383.13;;;-15.63;85.68
61900;BME280;47853;55.890;37.664;2023-01-10T08:49:45;101406.25;;;-15.56;85.34
61900;BME280;47853;55.890;37.664;2023-01-10T08:52:11;101377.31;;;-15.58;85.30
61900;BME280;47853;55.890;37.664;2023-01-10T08:54:36;101411.09;;;-15.37;85.02
61900;BME280;47853;55.890;37.664;2023-01-10T08:57:01;101421.13;;;-15.41;84.59
61900;BME280;47853;55.890;37.664;2023-01-10T08:59:27;101383.56;;;-15.49;84.37
61900;BME280;47853;55.890;37.664;2023-01-10T09:01:53;101375.59;;;-15.31;84.36
61900;BME280;47853;55.890;37.664;2023-01-10T09:04:18;101396.09;;;-15.26;84.37
61900;BME280;47853;55.890;37.664;2023-01-10T09:06:43;101390.19;;;-15.25;84.52
61900;BME280;47853;55.890;37.664;2023-01-10T09:09:09;101384.00;;;-15.33;83.96
61900;BME280;47853;55.890;37.664;2023-01-10T09:11:34;101392.69;;;-15.26;83.99
61900;BME280;47853;55.890;37.664;2023-01-10T09:14:00;101401.09;;;-15.31;84.10
61900;BME280;47853;55.890;37.664;2023-01-10T09:16:25;101396.16;;;-15.24;83.97
61900;BME280;47853;55.890;37.664;2023-01-10T09:18:51;101382.81;;;-15.16;83.53
61900;BME280;47853;55.890;37.664;2023-01-10T09:21:16;101384.31;;;-15.22;83.44
61900;BME280;47853;55.890;37.664;2023-01-10T09:23:41;101387.34;;;-15.05;83.63
61900;BME280;47853;55.890;37.664;2023-01-10T09:26:07;101368.25;;;-14.89;83.46
61900;BME280;47853;55.890;37.664;2023-01-10T09:28:32;101392.25;;;-14.81;82.85
61900;BME280;47853;55.890;37.664;2023-01-10T09:30:57;101388.81;;;-14.83;82.25
61900;BME280;47853;55.890;37.664;2023-01-10T09:33:23;101391.28;;;-14.86;81.81
61900;BME280;47853;55.890;37.664;2023-01-10T09:35:48;101393.03;;;-14.83;81.81
61900;BME280;47853;55.890;37.664;2023-01-10T09:38:16;101379.38;;;-14.85;81.70
61900;BME280;47853;55.890;37.664;2023-01-10T09:40:59;101405.94;;;-14.79;81.84
61900;BME280;47853;55.890;37.664;2023-01-10T09:43:59;101395.31;;;-14.94;82.21
61900;BME280;47853;55.890;37.664;2023-01-10T09:51:55;101378.94;;;-14.70;82.95
61900;BME280;47853;55.890;37.664;2023-01-10T09:54:56;101389.03;;;-14.75;83.77
61900;BME280;47853;55.890;37.664;2023-01-10T09:57:23;101380.25;;;-14.51;84.14
61900;BME280;47853;55.890;37.664;2023-01-10T09:59:51;101386.06;;;-14.57;83.73
61900;BME280;47853;55.890;37.664;2023-01-10T10:02:35;101361.47;;;-14.55;84.03
61900;BME280;47853;55.890;37.664;2023-01-10T10:05:23;101369.13;;;-14.55;83.51
61900;BME280;47853;55.890;37.664;2023-01-10T10:08:00;101337.75;;;-14.49;83.45
61900;BME280;47853;55.890;37.664;2023-01-10T10:10:37;101363.94;;;-14.58;82.95
61900;BME280;47853;55.890;37.664;2023-01-10T10:15:48;101333.19;;;-14.61;83.12
61900;BME280;47853;55.890;37.664;2023-01-10T10:21:17;101365.97;;;-14.45;85.06
61900;BME280;47853;55.890;37.664;2023-01-10T10:34:14;101356.19;;;-14.26;86.39
61900;BME280;47853;55.890;37.664;2023-01-10T10:36:48;101336.09;;;-14.47;86.45
61900;BME280;47853;55.890;37.664;2023-01-10T10:39:23;101361.38;;;-14.23;86.12
61900;BME280;47853;55.890;37.664;2023-01-10T10:41:53;101357.97;;;-14.23;85.88
61900;BME280;47853;55.890;37.664;2023-01-10T10:46:48;101379.75;;;-14.03;86.11
61900;BME280;47853;55.890;37.664;2023-01-10T10:49:20;101359.63;;;-13.90;85.85
61900;BME280;47853;55.890;37.664;2023-01-10T10:51:51;101365.84;;;-14.14;84.87
61900;BME280;47853;55.890;37.664;2023-01-10T10:54:17;101349.22;;;-13.98;85.20
61900;BME280;47853;55.890;37.664;2023-01-10T10:56:43;101344.06;;;-14.00;84.88
61900;BME280;47853;55.890;37.664;2023-01-10T10:59:14;101354.50;;;-13.90;84.73
61900;BME280;47853;55.890;37.664;2023-01-10T11:01:41;101348.59;;;-13.88;84.87
61900;BME280;47853;55.890;37.664;2023-01-10T11:04:11;101363.03;;;-13.90;85.35
61900;BME280;47853;55.890;37.664;2023-01-10T11:06:38;101347.94;;;-13.79;84.92
61900;BME280;47853;55.890;37.664;2023-01-10T11:09:05;101332.63;;;-13.79;84.14
61900;BME280;47853;55.890;37.664;2023-01-10T11:11:42;101355.75;;;-13.71;84.23
61900;BME280;47853;55.890;37.664;2023-01-10T11:14:12;101347.69;;;-13.50;84.13
61900;BME280;47853;55.890;37.664;2023-01-10T11:16:39;101356.41;;;-13.40;83.54
61900;BME280;47853;55.890;37.664;2023-01-10T11:21:33;101325.88;;;-13.75;82.83
61900;BME280;47853;55.890;37.664;2023-01-10T11:23:59;101349.09;;;-13.66;82.87
61900;BME280;47853;55.890;37.664;2023-01-10T11:26:51;101358.59;;;-13.59;81.75
61900;BME280;47853;55.890;37.664;2023-01-10T11:29:21;101365.00;;;-13.36;81.48
61900;BME280;47853;55.890;37.664;2023-01-10T11:31:48;101388.59;;;-13.50;80.42
61900;BME280;47853;55.890;37.664;2023-01-10T11:34:32;101384.38;;;-13.48;80.83
61900;BME280;47853;55.890;37.664;2023-01-10T11:37:00;101390.13;;;-13.58;80.88
61900;BME280;47853;55.890;37.664;2023-01-10T11:39:27;101353.50;;;-13.57;81.11
61900;BME280;47853;55.890;37.664;2023-01-10T11:41:53;101335.84;;;-13.46;80.83
61900;BME280;47853;55.890;37.664;2023-01-10T11:44:28;101360.47;;;-13.51;80.21
61900;BME280;47853;55.890;37.664;2023-01-10T11:46:56;101374.06;;;-13.52;79.85
61900;BME280;47853;55.890;37.664;2023-01-10T11:49:46;101340.91;;;-13.49;79.50
61900;BME280;47853;55.890;37.664;2023-01-10T11:52:23;101364.81;;;-13.47;79.52
61900;BME280;47853;55.890;37.664;2023-01-10T11:54:49;101345.84;;;-13.57;79.49
61900;BME280;47853;55.890;37.664;2023-01-10T11:57:21;101348.56;;;-13.49;79.44
61900;BME280;47853;55.890;37.664;2023-01-10T11:59:53;101337.59;;;-13.45;78.61
61900;BME280;47853;55.890;37.664;2023-01-10T12:02:26;101354.25;;;-13.20;78.99
61900;BME280;47853;55.890;37.664;2023-01-10T12:04:54;101352.31;;;-13.32;78.73
61900;BME280;47853;55.890;37.664;2023-01-10T12:07:20;101370.06;;;-13.39;79.12
61900;BME280;47853;55.890;37.664;2023-01-10T12:09:56;101363.34;;;-13.34;79.06
61900;BME280;47853;55.890;37.664;2023-01-10T12:12:28;101365.97;;;-13.30;79.81
61900;BME280;47853;55.890;37.664;2023-01-10T12:14:56;101368.66;;;-13.25;79.16
61900;BME280;47853;55.890;37.664;2023-01-10T12:17:40;101367.03;;;-13.20;79.38
61900;BME280;47853;55.890;37.664;2023-01-10T12:20:12;101390.94;;;-13.19;78.73
61900;BME280;47853;55.890;37.664;2023-01-10T12:22:44;101390.28;;;-13.09;79.30
61900;BME280;47853;55.890;37.664;2023-01-10T12:27:41;101377.41;;;-13.14;79.57
61900;BME280;47853;55.890;37.664;2023-01-10T12:32:45;101406.31;;;-13.18;79.81
61900;BME280;47853;55.890;37.664;2023-01-10T12:35:19;101390.88;;;-13.22;79.58
61900;BME280;47853;55.890;37.664;2023-01-10T12:40:41;101378.84;;;-13.27;79.53
61900;BME280;47853;55.890;37.664;2023-01-10T12:43:19;101396.13;;;-13.16;79.38
61900;BME280;47853;55.890;37.664;2023-01-10T12:45:56;101424.22;;;-13.18;79.19
61900;BME280;47853;55.890;37.664;2023-01-10T12:48:32;101400.41;;;-13.14;78.65
61900;BME280;47853;55.890;37.664;2023-01-10T12:51:08;101387.75;;;-13.07;78.42
61900;BME280;47853;55.890;37.664;2023-01-10T12:53:42;101403.16;;;-13.04;78.18
61900;BME280;47853;55.890;37.664;2023-01-10T12:56:11;101340.28;;;-13.36;78.08
61900;BME280;47853;55.890;37.664;2023-01-10T12:58:41;101407.00;;;-13.25;77.96
61900;BME280;47853;55.890;37.664;2023-01-10T13:01:19;101383.03;;;-13.30;77.90
61900;BME280;47853;55.890;37.664;2023-01-10T13:03:53;101400.28;;;-13.20;77.92
61900;BME280;47853;55.890;37.664;2023-01-10T13:06:20;101388.88;;;-12.94;78.50
61900;BME280;47853;55.890;37.664;2023-01-10T13:08:49;101383.72;;;-12.96;77.90
61900;BME280;47853;55.890;37.664;2023-01-10T13:11:16;101358.47;;;-13.22;78.41
61900;BME280;47853;55.890;37.664;2023-01-10T13:13:49;101373.06;;;-13.18;77.96
61900;BME280;47853;55.890;37.664;2023-01-10T13:21:49;101381.78;;;-13.06;77.63
61900;BME280;47853;55.890;37.664;2023-01-10T13:26:54;101367.94;;;-13.18;77.70
61900;BME280;47853;55.890;37.664;2023-01-10T13:29:29;101384.69;;;-13.32;77.73
61900;BME280;47853;55.890;37.664;2023-01-10T13:32:01;101358.47;;;-13.23;77.92
61900;BME280;47853;55.890;37.664;2023-01-10T13:34:32;101395.94;;;-13.24;78.26
61900;BME280;47853;55.890;37.664;2023-01-10T13:37:02;101377.03;;;-13.32;78.12
61900;BME280;47853;55.890;37.664;2023-01-10T13:39:41;101376.00;;;-13.41;77.82
61900;BME280;47853;55.890;37.664;2023-01-10T13:42:10;101380.59;;;-13.24;78.17
61900;BME280;47853;55.890;37.664;2023-01-10T13:52:48;101371.09;;;-13.31;77.12
61900;BME280;47853;55.890;37.664;2023-01-10T13:57:52;101379.72;;;-13.26;77.72
61900;BME280;47853;55.890;37.664;2023-01-10T14:00:45;101395.13;;;-13.23;77.92
61900;BME280;47853;55.890;37.664;2023-01-10T14:03:51;101418.13;;;-13.24;77.80
61900;BME280;47853;55.890;37.664;2023-01-10T14:06:20;101411.66;;;-13.07;77.93